Time;durP1;ratioP1;P1;durP2;ratioP2;P2;SDS_P1;SDS_P2;PMS_P1;PMS_P2;Temp;Humidity;BMP_temperature;BMP_pressure;BME280_temperature;BME280_humidity;BME280_pressure;Samples;Min_cycle;Max_cycle;Signal;HPM_P1;HPM_P2
2022/04/14 00:00:53;;;;;;;10.80;2.97;;;;;;;11.38;70.96;96560.13;2083131;28;20215;-65
2022/04/14 00:01:55;;;;;;;13.55;3.67;;;;;;;11.34;71.11;96558.66;2079950;28;20200;-64
2022/04/14 00:02:57;;;;;;;17.55;4.13;;;;;;;11.37;71.40;96574.16;2079970;28;20242;-63
2022/04/14 00:03:59;;;;;;;12.45;3.15;;;;;;;11.14;71.54;96545.22;2084501;28;20872;-65
2022/04/14 00:05:00;;;;;;;12.05;3.17;;;;;;;11.36;71.25;96572.50;2085120;28;20559;-64
2022/04/14 00:06:02;;;;;;;9.63;4.00;;;;;;;11.38;71.31;96571.44;2073575;28;20230;-64
2022/04/14 00:07:04;;;;;;;11.70;2.78;;;;;;;11.39;71.10;96574.91;2086721;28;20219;-64
2022/04/14 00:08:05;;;;;;;9.15;2.72;;;;;;;11.32;71.21;96566.63;2075870;28;20200;-64
2022/04/14 00:09:07;;;;;;;22.83;3.80;;;;;;;11.37;71.31;96568.91;2073003;28;20201;-65
2022/04/14 00:10:09;;;;;;;9.77;2.63;;;;;;;11.10;71.40;96546.38;2071719;28;20215;-65
2022/04/14 00:11:11;;;;;;;8.63;2.45;;;;;;;11.17;71.51;96565.97;2082140;28;20201;-64
2022/04/14 00:12:12;;;;;;;12.70;3.22;;;;;;;11.22;71.81;96571.72;2084564;28;20201;-65
2022/04/14 00:13:13;;;;;;;13.57;2.95;;;;;;;11.04;72.46;96562.56;2085013;28;20227;-64
2022/04/14 00:14:15;;;;;;;13.18;2.92;;;;;;;11.06;72.26;96545.75;2084940;28;20194;-64
2022/04/14 00:15:17;;;;;;;12.05;2.67;;;;;;;11.30;71.17;96573.78;2073275;28;20203;-65
2022/04/14 00:16:19;;;;;;;10.00;3.25;;;;;;;11.32;71.39;96565.81;2083700;28;20862;-65
2022/04/14 00:17:20;;;;;;;9.88;2.80;;;;;;;11.36;71.27;96567.25;2082351;28;20253;-65
2022/04/14 00:18:22;;;;;;;6.78;2.20;;;;;;;11.38;71.14;96570.59;2085764;28;20201;-64
2022/04/14 00:19:23;;;;;;;9.75;2.65;;;;;;;11.44;70.98;96565.75;2079503;28;20202;-65
2022/04/14 00:20:25;;;;;;;7.03;3.25;;;;;;;11.43;71.16;96571.13;2069703;28;20261;-64
2022/04/14 00:21:27;;;;;;;11.77;3.63;;;;;;;11.37;70.84;96558.44;2082977;28;20204;-64
2022/04/14 00:22:28;;;;;;;13.25;3.47;;;;;;;11.33;71.09;96562.22;2084493;28;20199;-65
2022/04/14 00:23:30;;;;;;;8.88;3.03;;;;;;;11.38;70.90;96570.59;2085738;28;20198;-64
2022/04/14 00:24:31;;;;;;;13.68;3.55;;;;;;;11.35;71.04;96571.66;2083339;28;20210;-65
2022/04/14 00:25:32;;;;;;;14.10;3.00;;;;;;;11.48;70.72;96567.19;2071091;28;20226;-64
2022/04/14 00:26:34;;;;;;;6.47;2.70;;;;;;;11.58;70.20;96567.34;2082170;28;20207;-65
2022/04/14 00:27:35;;;;;;;7.68;2.50;;;;;;;11.53;70.27;96572.13;2086483;28;20201;-65
2022/04/14 00:28:37;;;;;;;15.43;2.88;;;;;;;11.50;70.42;96571.50;2083194;28;20556;-64
2022/04/14 00:29:38;;;;;;;7.07;2.53;;;;;;;11.53;70.15;96569.50;2085118;28;20206;-65
2022/04/14 00:30:40;;;;;;;13.00;3.08;;;;;;;11.65;69.56;96573.84;2074143;28;20308;-65
2022/04/14 00:31:41;;;;;;;6.72;2.20;;;;;;;11.66;69.61;96572.03;2083857;28;20264;-65
2022/04/14 00:32:43;;;;;;;10.32;2.95;;;;;;;11.67;69.40;96571.94;2086268;28;20200;-64
2022/04/14 00:33:44;;;;;;;10.52;2.55;;;;;;;11.58;69.33;96559.47;2086710;28;20200;-65
2022/04/14 00:34:46;;;;;;;14.98;3.13;;;;;;;11.59;69.27;96568.22;2085112;28;20670;-64
2022/04/14 00:35:47;;;;;;;12.98;3.15;;;;;;;11.54;69.40;96565.06;2087145;28;20824;-64
2022/04/14 00:36:48;;;;;;;11.80;3.20;;;;;;;11.59;69.37;96571.66;2087122;28;20219;-64
2022/04/14 00:37:50;;;;;;;4.68;2.10;;;;;;;11.37;69.73;96561.06;2085710;28;20226;-64
2022/04/14 00:38:51;;;;;;;17.08;2.90;;;;;;;11.51;69.33;96571.38;2084739;28;20204;-64
2022/04/14 00:39:53;;;;;;;11.40;3.38;;;;;;;11.53;68.87;96574.75;2079178;28;20674;-65
2022/04/14 00:40:55;;;;;;;10.35;3.00;;;;;;;11.63;68.35;96567.03;2065937;28;20558;-65
2022/04/14 00:41:57;;;;;;;14.13;3.33;;;;;;;11.68;68.28;96570.13;2076177;28;20266;-64
2022/04/14 00:42:58;;;;;;;11.45;4.15;;;;;;;11.68;68.20;96565.75;2077557;28;20212;-64
2022/04/14 00:44:00;;;;;;;10.20;3.20;;;;;;;11.73;68.27;96575.06;2077722;28;20193;-64
2022/04/14 00:45:03;;;;;;;11.00;3.17;;;;;;;11.61;68.64;96569.75;2077920;28;20207;-64
2022/04/14 00:46:05;;;;;;;15.45;3.45;;;;;;;11.68;68.62;96575.38;2075749;28;20226;-65
2022/04/14 00:47:07;;;;;;;10.50;2.83;;;;;;;11.60;68.28;96555.00;2082992;28;20734;-64
2022/04/14 00:48:08;;;;;;;15.13;3.45;;;;;;;11.67;68.19;96573.72;2078976;28;20204;-65
2022/04/14 00:49:11;;;;;;;9.57;2.92;;;;;;;11.57;68.34;96576.19;2071273;28;20197;-65
2022/04/14 00:50:13;;;;;;;11.05;3.38;;;;;;;11.57;68.28;96565.69;2061731;28;20207;-65
2022/04/14 00:51:15;;;;;;;12.90;4.05;;;;;;;11.50;68.20;96561.84;2079686;28;20785;-64
2022/04/14 00:52:16;;;;;;;12.95;3.55;;;;;;;11.55;68.62;96580.72;2082420;28;20205;-65
2022/04/14 00:53:19;;;;;;;16.20;3.45;;;;;;;11.53;68.54;96587.84;2081514;28;20200;-65
2022/04/14 00:54:20;;;;;;;9.18;3.17;;;;;;;11.54;68.42;96589.50;2081279;28;20216;-64
2022/04/14 00:55:22;;;;;;;20.65;4.45;;;;;;;11.45;68.21;96577.09;2074002;28;20197;-65
2022/04/14 00:56:23;;;;;;;18.77;4.20;;;;;;;11.49;68.48;96583.78;2083316;28;20204;-65
2022/04/14 00:57:25;;;;;;;7.25;2.75;;;;;;;11.54;68.23;96580.81;2083060;28;20214;-64
2022/04/14 00:58:27;;;;;;;10.27;3.70;;;;;;;11.54;68.39;96581.63;2085675;28;20209;-64
2022/04/14 00:59:29;;;;;;;7.78;3.80;;;;;;;11.57;68.24;96588.47;2083633;28;20195;-64
2022/04/14 01:00:30;;;;;;;23.05;3.58;;;;;;;11.54;68.43;96586.88;2074446;28;20224;-64
2022/04/14 01:01:32;;;;;;;14.18;3.55;;;;;;;11.50;68.37;96577.56;2083851;28;20684;-64
2022/04/14 01:02:33;;;;;;;20.15;4.38;;;;;;;11.48;68.32;96582.09;2075843;28;20197;-64
2022/04/14 01:03:36;;;;;;;7.53;2.85;;;;;;;11.40;68.80;96592.31;2077301;28;20208;-65
2022/04/14 01:04:40;;;;;;;17.77;4.65;;;;;;;11.39;68.60;96585.41;2083776;28;20206;-64
2022/04/14 01:05:42;;;;;;;10.60;3.35;;;;;;;11.44;68.79;96583.25;2072821;28;20225;-65
2022/04/14 01:06:44;;;;;;;19.05;3.63;;;;;;;11.41;68.99;96586.13;2082781;28;20760;-65
2022/04/14 01:07:46;;;;;;;29.77;3.63;;;;;;;11.42;68.87;96590.41;2085062;28;20229;-64
2022/04/14 01:10:09;;;;;;;8.32;3.00;;;;;;;11.26;68.76;96567.91;2075100;28;20204;-65
2022/04/14 01:11:10;;;;;;;12.45;3.90;;;;;;;11.45;68.72;96598.91;2085238;28;20294;-64
2022/04/14 01:12:12;;;;;;;11.98;4.10;;;;;;;11.34;68.91;96595.38;2084088;28;20217;-64
2022/04/14 01:13:15;;;;;;;15.60;4.38;;;;;;;11.31;68.93;96579.84;2084239;28;20208;-64
2022/04/14 01:14:29;;;;;;;7.88;3.60;;;;;;;11.44;68.86;96593.75;2084765;28;20200;-65
2022/04/14 01:15:31;;;;;;;10.65;3.30;;;;;;;11.40;68.79;96579.19;2074326;28;20228;-64
2022/04/14 01:16:32;;;;;;;11.63;4.03;;;;;;;11.39;68.65;96588.03;2084931;28;20258;-64
2022/04/14 01:17:34;;;;;;;18.45;3.58;;;;;;;11.44;68.55;96581.47;2085019;28;20192;-64
2022/04/14 01:18:36;;;;;;;14.02;3.85;;;;;;;11.44;68.83;96591.97;2084107;28;20218;-64
2022/04/14 01:19:38;;;;;;;12.93;4.75;;;;;;;11.44;68.83;96591.13;2084549;28;20207;-65
2022/04/14 01:20:41;;;;;;;8.80;3.60;;;;;;;11.39;68.85;96594.09;2074156;28;20229;-64
2022/04/14 01:21:49;;;;;;;13.63;3.45;;;;;;;11.39;68.89;96595.88;2083666;28;20212;-65
2022/04/14 01:22:57;;;;;;;8.02;3.17;;;;;;;11.32;69.27;96597.28;2082107;28;20224;-64
2022/04/14 01:23:59;;;;;;;11.35;3.40;;;;;;;11.36;68.98;96596.94;2084040;28;20290;-65
2022/04/14 01:25:02;;;;;;;13.35;3.70;;;;;;;11.42;68.76;96599.09;2085337;28;20201;-64
2022/04/14 01:26:03;;;;;;;15.77;3.45;;;;;;;11.41;68.77;96596.63;2073603;28;20242;-64
2022/04/14 01:27:05;;;;;;;14.82;4.05;;;;;;;11.47;69.04;96598.78;2083812;28;20195;-65
2022/04/14 01:28:07;;;;;;;10.73;3.33;;;;;;;11.36;68.84;96583.00;2084434;28;20196;-64
2022/04/14 01:29:21;;;;;;;8.68;3.20;;;;;;;11.50;68.81;96592.47;2076291;28;20208;-64
2022/04/14 01:30:22;;;;;;;9.75;3.75;;;;;;;11.51;68.71;96597.63;2068631;28;20751;-64
2022/04/14 01:31:24;;;;;;;11.93;3.05;;;;;;;11.40;69.10;96594.94;2085580;28;20200;-64
2022/04/14 01:32:25;;;;;;;13.00;3.92;;;;;;;11.36;69.06;96593.47;2083544;28;20207;-64
2022/04/14 01:33:27;;;;;;;14.55;3.65;;;;;;;11.44;69.39;96591.13;2084160;28;20337;-65
2022/04/14 01:34:32;;;;;;;16.88;4.38;;;;;;;11.32;69.11;96587.59;2084936;28;20199;-65
2022/04/14 01:35:33;;;;;;;9.40;2.95;;;;;;;11.33;68.92;96583.19;2074147;28;20586;-64
2022/04/14 01:36:35;;;;;;;10.77;3.90;;;;;;;11.48;69.12;96600.44;2076588;28;20236;-65
2022/04/14 01:37:36;;;;;;;6.90;2.88;;;;;;;11.51;68.81;96602.03;2074362;28;20568;-65
2022/04/14 01:38:38;;;;;;;10.77;3.45;;;;;;;11.52;68.71;96599.28;2082892;28;20215;-65
2022/04/14 01:39:40;;;;;;;11.68;3.13;;;;;;;11.48;69.27;96601.28;2084366;28;20213;-65
2022/04/14 01:40:41;;;;;;;12.23;4.80;;;;;;;11.42;68.82;96587.78;2074365;28;20270;-64
2022/04/14 01:41:44;;;;;;;11.98;3.22;;;;;;;11.47;68.90;96607.50;2083079;28;20197;-64
2022/04/14 01:42:45;;;;;;;11.82;3.65;;;;;;;11.41;69.30;96599.25;2074705;28;20719;-65
2022/04/14 01:43:47;;;;;;;12.82;4.22;;;;;;;11.48;69.10;96608.31;2076529;28;20246;-64
2022/04/14 01:44:48;;;;;;;5.80;3.70;;;;;;;11.42;69.14;96604.34;2083554;28;20207;-64
2022/04/14 01:45:51;;;;;;;16.15;3.60;;;;;;;11.41;69.35;96602.69;2072209;28;20293;-64
2022/04/14 01:46:53;;;;;;;12.43;3.90;;;;;;;11.50;69.57;96605.59;2083529;28;20667;-65
2022/04/14 01:47:54;;;;;;;18.75;3.80;;;;;;;11.55;69.43;96611.34;2076481;28;20204;-65
2022/04/14 01:48:55;;;;;;;17.65;4.18;;;;;;;11.62;69.39;96610.78;2085520;28;20200;-64
2022/04/14 01:49:57;;;;;;;8.88;3.55;;;;;;;11.65;69.70;96613.19;2083382;28;20191;-64
2022/04/14 01:50:58;;;;;;;12.35;3.85;;;;;;;11.67;69.68;96613.06;2069012;28;20227;-65
2022/04/14 01:52:00;;;;;;;11.43;3.80;;;;;;;11.70;69.43;96610.22;2078684;28;20200;-65
2022/04/14 01:53:01;;;;;;;14.00;4.68;;;;;;;11.56;69.65;96599.91;2083108;28;20616;-64
2022/04/14 01:54:04;;;;;;;20.10;4.10;;;;;;;11.65;69.49;96620.22;2084960;28;20657;-64
2022/04/14 01:55:07;;;;;;;13.40;3.88;;;;;;;11.40;69.79;96600.16;2083836;28;20206;-64
2022/04/14 01:56:09;;;;;;;16.45;4.22;;;;;;;11.52;69.90;96614.19;2077035;28;20230;-65
2022/04/14 01:57:10;;;;;;;10.32;3.80;;;;;;;11.58;69.84;96619.81;2076460;28;20322;-64
2022/04/14 01:58:12;;;;;;;14.45;4.55;;;;;;;11.69;69.79;96611.19;2074983;28;20219;-64
2022/04/14 01:59:13;;;;;;;14.20;4.43;;;;;;;11.67;69.64;96619.16;2076575;28;20207;-64
2022/04/14 02:00:16;;;;;;;16.48;4.03;;;;;;;11.55;69.93;96614.81;2075764;28;20207;-64
2022/04/14 02:01:17;;;;;;;20.00;4.18;;;;;;;11.53;70.08;96614.06;2083875;28;20227;-64
2022/04/14 02:02:19;;;;;;;13.23;3.50;;;;;;;11.50;70.17;96614.28;2082930;28;20204;-64
2022/04/14 02:03:21;;;;;;;10.00;2.72;;;;;;;11.50;70.36;96616.91;2085045;28;20208;-64
2022/04/14 02:04:22;;;;;;;15.35;3.88;;;;;;;11.58;70.17;96619.81;2082140;28;20232;-65
2022/04/14 02:05:24;;;;;;;13.07;4.05;;;;;;;11.52;70.34;96628.13;2073440;28;20211;-65
2022/04/14 02:06:26;;;;;;;10.73;3.78;;;;;;;11.30;70.65;96594.75;2082003;28;20223;-64
2022/04/14 02:07:27;;;;;;;17.05;4.25;;;;;;;11.40;71.13;96621.97;2084223;28;20229;-64
2022/04/14 02:08:29;;;;;;;24.02;4.93;;;;;;;11.39;71.23;96619.50;2085127;28;20222;-64
2022/04/14 02:09:30;;;;;;;14.13;4.45;;;;;;;11.42;71.20;96619.25;2079222;28;20193;-65
2022/04/14 02:10:32;;;;;;;16.63;4.88;;;;;;;11.36;71.34;96631.00;2070691;28;20231;-65
2022/04/14 02:11:33;;;;;;;12.18;4.03;;;;;;;11.21;72.20;96619.84;2087612;28;20207;-64
2022/04/14 02:12:35;;;;;;;16.23;5.38;;;;;;;11.28;72.41;96622.84;2085426;28;20290;-65
2022/04/14 02:13:37;;;;;;;12.60;4.45;;;;;;;11.22;72.54;96623.31;2086313;28;20203;-65
2022/04/14 02:14:39;;;;;;;13.35;4.75;;;;;;;11.38;72.21;96626.50;2083284;28;20206;-65
2022/04/14 02:15:41;;;;;;;20.52;4.85;;;;;;;11.45;71.79;96629.53;2074758;28;20223;-64
2022/04/14 02:16:42;;;;;;;13.73;4.88;;;;;;;11.37;71.81;96623.97;2078120;28;20727;-64
2022/04/14 02:17:44;;;;;;;18.75;6.05;;;;;;;11.20;72.79;96631.25;2078833;28;20195;-64
2022/04/14 02:18:45;;;;;;;16.52;5.00;;;;;;;11.24;72.91;96632.72;2085169;28;20255;-64
2022/04/14 02:19:47;;;;;;;14.18;6.22;;;;;;;11.41;73.58;96630.69;2083992;28;20215;-64
2022/04/14 02:20:48;;;;;;;17.10;5.35;;;;;;;11.38;73.68;96633.53;2074259;28;20614;-64
2022/04/14 02:21:50;;;;;;;15.70;5.55;;;;;;;11.31;73.32;96627.03;2084929;28;20203;-64
2022/04/14 02:22:52;;;;;;;23.40;6.15;;;;;;;11.20;74.13;96630.44;2078953;28;20222;-65
2022/04/14 02:23:53;;;;;;;15.52;5.53;;;;;;;11.20;73.55;96630.44;2078609;28;20206;-64
2022/04/14 02:24:55;;;;;;;15.18;5.72;;;;;;;11.18;73.86;96620.06;2077100;28;20556;-64
2022/04/14 02:25:56;;;;;;;13.90;4.38;;;;;;;11.25;73.86;96631.78;2073507;28;20221;-64
2022/04/14 02:26:57;;;;;;;19.83;6.05;;;;;;;11.14;74.05;96636.13;2084278;28;20203;-65
2022/04/14 02:27:59;;;;;;;17.40;5.45;;;;;;;11.13;74.44;96635.25;2082945;28;20647;-64
2022/04/14 02:29:01;;;;;;;20.80;5.35;;;;;;;11.10;74.55;96640.72;2083459;28;20207;-64
2022/04/14 02:30:04;;;;;;;17.00;5.15;;;;;;;11.04;74.64;96636.75;2085106;28;20204;-64
2022/04/14 02:31:05;;;;;;;13.85;5.38;;;;;;;11.03;75.15;96642.94;2073863;28;20216;-65
2022/04/14 02:32:07;;;;;;;15.27;6.50;;;;;;;11.18;75.44;96645.44;2083403;28;20203;-64
2022/04/14 02:33:08;;;;;;;35.70;8.38;;;;;;;11.10;76.20;96643.34;2083898;28;20533;-64
2022/04/14 02:34:10;;;;;;;20.27;7.18;;;;;;;11.06;77.58;96636.66;2084402;28;20212;-64
2022/04/14 02:35:11;;;;;;;22.23;7.55;;;;;;;11.10;77.83;96638.09;2073397;28;20236;-64
2022/04/14 02:36:13;;;;;;;20.27;8.10;;;;;;;11.10;78.79;96639.91;2082663;28;20198;-65
2022/04/14 02:37:14;;;;;;;22.52;9.05;;;;;;;11.08;78.31;96642.63;2081853;28;20230;-65
2022/04/14 02:38:16;;;;;;;21.13;8.40;;;;;;;11.04;78.50;96643.78;2082667;28;20812;-64
2022/04/14 02:39:18;;;;;;;16.88;8.07;;;;;;;11.06;78.34;96639.28;2084325;28;20203;-65
2022/04/14 02:40:19;;;;;;;22.23;7.90;;;;;;;11.04;78.99;96644.63;2075249;28;20719;-64
2022/04/14 02:41:21;;;;;;;25.10;9.05;;;;;;;11.05;78.59;96642.81;2084560;28;20202;-64
2022/04/14 02:42:23;;;;;;;17.60;8.20;;;;;;;11.08;79.38;96647.88;2083879;28;20736;-64
2022/04/14 02:43:24;;;;;;;22.63;9.00;;;;;;;11.12;79.31;96638.84;2083882;28;20196;-64
2022/04/14 02:44:25;;;;;;;23.23;9.85;;;;;;;11.08;79.05;96634.75;2084080;28;20210;-65
2022/04/14 02:45:27;;;;;;;16.80;8.63;;;;;;;11.14;79.66;96650.06;2073117;28;20231;-65
2022/04/14 02:46:29;;;;;;;25.88;9.85;;;;;;;11.12;80.26;96644.09;2083794;28;20224;-64
2022/04/14 02:47:30;;;;;;;25.88;9.85;;;;;;;10.87;79.48;96597.78;2086289;28;20409;-65
2022/04/14 02:48:32;;;;;;;21.55;8.45;;;;;;;11.10;79.95;96627.63;2086373;28;20205;-65
2022/04/14 02:49:34;;;;;;;24.73;9.10;;;;;;;11.15;80.14;96643.84;2083324;28;20200;-65
2022/04/14 02:50:36;;;;;;;20.13;8.93;;;;;;;10.96;80.58;96633.00;2074815;28;20217;-64
2022/04/14 02:51:38;;;;;;;26.40;9.25;;;;;;;11.05;80.97;96650.69;2080894;28;20194;-64
2022/04/14 02:52:39;;;;;;;20.15;10.38;;;;;;;11.10;80.70;96645.97;2078665;28;21135;-64
2022/04/14 02:53:41;;;;;;;26.83;10.10;;;;;;;11.04;80.28;96630.69;2078254;28;20197;-64
2022/04/14 02:54:42;;;;;;;32.53;11.00;;;;;;;11.11;80.86;96652.88;2075450;28;20554;-64
2022/04/14 02:55:43;;;;;;;23.00;9.15;;;;;;;11.12;80.88;96653.72;2065038;28;20244;-64
2022/04/14 02:56:45;;;;;;;18.25;9.15;;;;;;;11.11;80.98;96638.94;2083319;28;20193;-64
2022/04/14 02:57:48;;;;;;;19.92;10.85;;;;;;;11.19;81.21;96653.19;2077330;28;20262;-64
2022/04/14 02:58:49;;;;;;;19.83;10.90;;;;;;;11.17;81.58;96647.22;2075394;28;20198;-65
2022/04/14 02:59:51;;;;;;;28.80;11.80;;;;;;;11.17;81.24;96646.38;2085369;28;20208;-64
2022/04/14 03:00:52;;;;;;;31.83;12.23;;;;;;;11.19;82.11;96641.84;2071478;28;20275;-64
2022/04/14 03:01:54;;;;;;;21.70;12.23;;;;;;;11.21;81.93;96648.69;2078405;28;20284;-64
2022/04/14 03:02:55;;;;;;;27.05;12.15;;;;;;;11.24;81.63;96643.22;2078906;28;20197;-64
2022/04/14 03:03:57;;;;;;;27.23;11.30;;;;;;;11.26;81.77;96649.19;2086300;28;20233;-64
2022/04/14 03:04:58;;;;;;;27.05;12.20;;;;;;;11.30;81.81;96648.97;2083910;28;20560;-64
2022/04/14 03:06:00;;;;;;;24.20;10.88;;;;;;;11.31;81.50;96650.63;2074253;28;20220;-64
2022/04/14 03:07:02;;;;;;;20.23;11.13;;;;;;;11.29;81.83;96650.75;2085372;28;20251;-64
2022/04/14 03:08:03;;;;;;;25.73;11.65;;;;;;;11.32;81.85;96649.69;2088618;28;20202;-64
2022/04/14 03:09:05;;;;;;;25.55;13.02;;;;;;;11.26;81.99;96651.78;2084162;28;20204;-64
2022/04/14 03:10:07;;;;;;;25.27;13.73;;;;;;;11.20;82.77;96647.00;2084388;28;20196;-64
2022/04/14 03:11:09;;;;;;;25.85;14.52;;;;;;;11.28;82.78;96654.31;2083344;28;20213;-65
2022/04/14 03:12:12;;;;;;;24.50;13.82;;;;;;;11.32;82.90;96660.19;2086773;28;20224;-64
2022/04/14 03:13:13;;;;;;;23.63;13.73;;;;;;;11.30;82.86;96648.97;2086302;28;20201;-64
2022/04/14 03:14:15;;;;;;;29.02;14.43;;;;;;;11.31;83.35;96658.50;2077529;28;20280;-64
2022/04/14 03:15:17;;;;;;;31.25;14.48;;;;;;;11.30;83.25;96648.97;2069446;28;20212;-64
2022/04/14 03:16:19;;;;;;;33.70;15.50;;;;;;;11.31;83.86;96658.50;2083773;28;20201;-64
2022/04/14 03:17:20;;;;;;;30.38;15.55;;;;;;;11.30;83.70;96651.59;2079804;28;20197;-64
2022/04/14 03:18:21;;;;;;;39.90;15.57;;;;;;;11.30;83.65;96659.47;2078362;28;20225;-64
2022/04/14 03:19:24;;;;;;;35.00;15.23;;;;;;;11.30;83.78;96655.03;2084077;28;20653;-64
2022/04/14 03:20:26;;;;;;;36.38;16.13;;;;;;;11.33;83.67;96659.22;2075677;28;20486;-64
2022/04/14 03:21:28;;;;;;;36.33;15.55;;;;;;;11.23;84.03;96656.41;2077665;28;20809;-64
2022/04/14 03:22:33;;;;;;;33.65;16.92;;;;;;;11.19;84.79;96655.81;2078110;28;20193;-64
2022/04/14 03:23:35;;;;;;;32.83;17.73;;;;;;;11.11;85.22;96646.81;2082425;28;20208;-64
2022/04/14 03:24:37;;;;;;;30.58;17.00;;;;;;;11.17;85.31;96657.72;2084804;28;20203;-64
2022/04/14 03:25:39;;;;;;;46.95;18.40;;;;;;;11.15;85.58;96659.56;2075096;28;20221;-64
2022/04/14 03:26:40;;;;;;;37.97;17.70;;;;;;;11.04;85.63;96649.84;2083758;28;20264;-65
2022/04/14 03:27:42;;;;;;;30.80;18.50;;;;;;;11.10;86.06;96661.69;2085291;28;20200;-64
2022/04/14 03:28:44;;;;;;;31.05;17.35;;;;;;;11.05;86.22;96650.69;2084614;28;20198;-64
2022/04/14 03:29:45;;;;;;;29.55;18.25;;;;;;;11.10;85.74;96666.94;2086225;28;20550;-64
2022/04/14 03:30:47;;;;;;;30.40;18.42;;;;;;;11.04;86.15;96659.50;2084024;28;20232;-64
2022/04/14 03:31:48;;;;;;;33.60;18.60;;;;;;;11.00;86.31;96656.25;2086583;28;20192;-64
2022/04/14 03:32:50;;;;;;;39.03;19.98;;;;;;;11.04;86.92;96662.97;2086511;28;20321;-64
2022/04/14 03:33:51;;;;;;;37.78;19.70;;;;;;;11.07;86.31;96664.53;2079744;28;20276;-64
2022/04/14 03:34:53;;;;;;;41.78;22.15;;;;;;;11.08;87.00;96660.97;2080479;28;20227;-64
2022/04/14 03:35:54;;;;;;;38.17;21.45;;;;;;;10.89;86.94;96629.97;2074126;28;20251;-64
2022/04/14 03:36:55;;;;;;;39.00;19.90;;;;;;;10.89;87.01;96651.75;2082851;28;20672;-64
2022/04/14 03:38:02;;;;;;;38.72;21.58;;;;;;;11.02;87.20;96658.78;2080362;28;20200;-64
2022/04/14 03:39:23;;;;;;;37.92;21.17;;;;;;;11.05;86.83;96658.53;2081212;28;20707;-64
2022/04/14 03:40:24;;;;;;;35.25;22.65;;;;;;;11.04;87.17;96659.50;2075277;28;20196;-64
2022/04/14 03:41:26;;;;;;;45.53;21.92;;;;;;;11.11;87.17;96663.34;2084999;28;20207;-64
2022/04/14 03:42:27;;;;;;;50.78;22.33;;;;;;;10.94;87.26;96648.81;2085429;28;20209;-64
2022/04/14 03:43:29;;;;;;;42.22;22.98;;;;;;;10.92;87.42;96648.09;2084625;28;20197;-64
2022/04/14 03:44:30;;;;;;;45.30;25.42;;;;;;;10.89;88.33;96656.16;2084869;28;20223;-64
2022/04/14 03:45:31;;;;;;;44.33;23.92;;;;;;;10.84;88.24;96648.63;2073319;28;20565;-64
2022/04/14 03:46:33;;;;;;;45.47;24.45;;;;;;;10.82;89.16;96658.38;2084688;28;20200;-64
2022/04/14 03:47:35;;;;;;;40.85;24.77;;;;;;;10.86;89.18;96662.47;2087494;28;20604;-64
2022/04/14 03:48:36;;;;;;;46.50;26.42;;;;;;;10.88;89.01;96660.56;2085418;28;20188;-64
2022/04/14 03:49:38;;;;;;;44.53;25.85;;;;;;;10.88;89.20;96657.94;2085909;28;20643;-64
2022/04/14 03:50:39;;;;;;;42.60;26.23;;;;;;;10.83;89.23;96652.16;2075222;28;20221;-64
2022/04/14 03:51:41;;;;;;;42.42;25.10;;;;;;;10.93;89.02;96664.66;2085393;28;20204;-64
2022/04/14 03:52:42;;;;;;;46.85;26.67;;;;;;;10.86;89.65;96662.47;2085571;28;20200;-64
2022/04/14 03:53:44;;;;;;;50.20;27.25;;;;;;;10.77;89.98;96664.88;2085463;28;20201;-65
2022/04/14 03:54:46;;;;;;;56.30;29.75;;;;;;;10.78;90.29;96670.00;2084060;28;20550;-64
2022/04/14 03:55:47;;;;;;;45.35;26.75;;;;;;;10.84;89.79;96671.38;2076317;28;20224;-64
2022/04/14 03:56:49;;;;;;;55.45;27.77;;;;;;;10.89;89.50;96670.09;2085730;28;20196;-64
2022/04/14 03:57:50;;;;;;;53.45;28.20;;;;;;;10.73;90.32;96663.41;2079773;28;20197;-64
2022/04/14 03:58:51;;;;;;;47.92;28.13;;;;;;;10.75;90.99;96669.38;2080264;28;20547;-64
2022/04/14 03:59:53;;;;;;;55.40;27.65;;;;;;;10.47;90.94;96616.25;2084536;28;20200;-64
2022/04/14 04:00:54;;;;;;;45.50;26.83;;;;;;;10.78;90.62;96667.38;2072581;28;20221;-64
2022/04/14 04:01:57;;;;;;;48.95;28.95;;;;;;;10.71;90.79;96660.06;2084227;28;20200;-64
2022/04/14 04:02:59;;;;;;;53.83;29.90;;;;;;;10.75;91.43;96667.59;2083562;28;20289;-64
2022/04/14 04:04:01;;;;;;;50.20;28.63;;;;;;;10.79;91.11;96666.44;2083149;28;20286;-64
2022/04/14 04:05:04;;;;;;;47.33;27.13;;;;;;;10.75;91.06;96664.97;2084273;28;20201;-65
2022/04/14 04:06:05;;;;;;;53.17;28.80;;;;;;;10.79;90.83;96650.72;2075393;28;20637;-64
2022/04/14 04:07:07;;;;;;;50.15;26.65;;;;;;;10.81;91.06;96661.91;2075866;28;20217;-64
2022/04/14 04:08:09;;;;;;;45.47;28.83;;;;;;;10.85;91.09;96663.38;2076256;28;20254;-65
2022/04/14 04:09:10;;;;;;;43.65;28.08;;;;;;;10.89;90.27;96661.41;2086490;28;20719;-65
2022/04/14 04:10:12;;;;;;;56.88;30.88;;;;;;;10.89;90.53;96662.22;2075842;28;20197;-65
2022/04/14 04:11:14;;;;;;;50.10;30.80;;;;;;;10.84;90.63;96660.91;2085136;28;20200;-65
2022/04/14 04:12:17;;;;;;;50.80;29.45;;;;;;;10.75;90.60;96646.63;2076660;28;20208;-65
2022/04/14 04:13:19;;;;;;;49.17;28.40;;;;;;;10.79;90.51;96660.38;2075032;28;20206;-65
2022/04/14 04:14:21;;;;;;;51.60;30.02;;;;;;;10.81;90.07;96658.47;2076511;28;20780;-65
2022/04/14 04:15:22;;;;;;;46.47;28.70;;;;;;;10.84;90.34;96661.72;2074626;28;20197;-65
2022/04/14 04:16:24;;;;;;;54.22;29.98;;;;;;;10.85;90.57;96662.56;2084081;28;20299;-65
2022/04/14 04:17:26;;;;;;;51.53;27.80;;;;;;;10.87;90.42;96661.50;2079525;28;20221;-65
2022/04/14 04:18:29;;;;;;;48.55;29.65;;;;;;;10.77;90.63;96665.69;2079901;28;20190;-65
2022/04/14 04:19:31;;;;;;;58.28;28.90;;;;;;;10.81;90.66;96661.91;2084799;28;20606;-65
2022/04/14 04:20:33;;;;;;;44.53;27.23;;;;;;;10.79;90.68;96661.19;2071760;28;20224;-65
2022/04/14 04:21:34;;;;;;;41.75;27.50;;;;;;;10.66;90.43;96662.97;2085677;28;20200;-65
2022/04/14 04:22:36;;;;;;;44.65;29.10;;;;;;;10.67;90.08;96664.66;2085308;28;20216;-65
2022/04/14 04:23:37;;;;;;;43.67;26.75;;;;;;;10.74;90.07;96670.31;2084754;28;20650;-65
2022/04/14 04:24:39;;;;;;;40.30;26.80;;;;;;;10.64;90.37;96662.22;2083795;28;20205;-65
2022/04/14 04:25:40;;;;;;;51.70;28.35;;;;;;;10.62;90.73;96672.84;2074701;28;20304;-65
2022/04/14 04:26:42;;;;;;;50.70;26.95;;;;;;;10.61;90.71;96683.41;2085467;28;20316;-65
2022/04/14 04:27:43;;;;;;;52.45;30.55;;;;;;;10.51;91.41;96669.28;2084055;28;20216;-65
2022/04/14 04:28:45;;;;;;;53.00;28.92;;;;;;;10.48;91.51;96667.66;2084950;28;20193;-64
2022/04/14 04:29:47;;;;;;;52.58;29.92;;;;;;;10.46;91.89;96662.53;2085071;28;20795;-65
2022/04/14 04:30:48;;;;;;;54.55;30.63;;;;;;;10.53;91.75;96678.69;2074120;28;20225;-65
2022/04/14 04:31:50;;;;;;;48.17;28.45;;;;;;;10.47;92.18;96681.72;2083359;28;20610;-65
2022/04/14 04:32:51;;;;;;;51.80;29.42;;;;;;;10.42;91.39;96676.78;2079768;28;20201;-65
2022/04/14 04:33:53;;;;;;;43.10;28.00;;;;;;;10.40;92.20;96683.88;2079911;28;20193;-65
2022/04/14 04:34:54;;;;;;;61.70;30.73;;;;;;;10.40;92.45;96681.28;2084476;28;20199;-65
2022/04/14 04:35:56;;;;;;;55.08;30.58;;;;;;;10.40;93.07;96685.69;2086513;28;20220;-65
2022/04/14 04:36:57;;;;;;;54.97;30.30;;;;;;;10.38;92.48;96677.91;2078609;28;20201;-65
2022/04/14 04:37:59;;;;;;;48.38;27.85;;;;;;;10.36;92.44;96690.28;2078417;28;20196;-65
2022/04/14 04:39:01;;;;;;;56.15;31.27;;;;;;;10.43;92.89;96688.94;2084910;28;20196;-65
2022/04/14 04:40:04;;;;;;;48.42;29.15;;;;;;;10.39;92.76;96684.84;2084399;28;20764;-65
2022/04/14 04:41:05;;;;;;;57.33;30.50;;;;;;;10.46;92.56;96682.66;2069655;28;20225;-68
2022/04/14 04:42:07;;;;;;;51.08;29.88;;;;;;;10.47;92.14;96692.19;2079911;28;20203;-67
2022/04/14 04:43:09;;;;;;;61.95;30.77;;;;;;;10.36;92.79;96676.34;2085704;28;20239;-68
2022/04/14 04:44:10;;;;;;;59.10;29.23;;;;;;;10.40;92.23;96673.41;2085488;28;20607;-67
2022/04/14 04:45:12;;;;;;;53.28;30.15;;;;;;;10.44;91.85;96681.91;2065543;28;20197;-68
2022/04/14 04:46:15;;;;;;;47.67;29.02;;;;;;;10.47;91.95;96685.16;2076349;28;20687;-67
2022/04/14 04:47:20;;;;;;;60.15;31.50;;;;;;;10.43;92.08;96677.63;2085068;28;20263;-68
2022/04/14 04:48:21;;;;;;;54.85;31.33;;;;;;;10.47;91.92;96685.16;2085924;28;20726;-68